createdAt,value
2024-05-09T00:00:30.810Z,3.30
2024-05-09T00:03:03.383Z,3.70
2024-05-09T00:05:29.961Z,4.20
2024-05-09T00:07:56.505Z,3.95
2024-05-09T00:10:29.310Z,4.07
2024-05-09T00:13:02.737Z,4.30
2024-05-09T00:15:29.292Z,3.83
2024-05-09T00:17:55.967Z,3.75
2024-05-09T00:20:28.533Z,3.90
2024-05-09T00:23:02.701Z,3.75
2024-05-09T00:25:29.170Z,3.85
2024-05-09T00:27:56.048Z,3.50
2024-05-09T00:30:31.584Z,3.40
2024-05-09T00:33:01.843Z,3.55
2024-05-09T00:35:28.673Z,3.97
2024-05-09T00:37:56.296Z,3.97
2024-05-09T00:40:31.017Z,4.10
2024-05-09T00:43:05.752Z,3.72
2024-05-09T00:45:33.398Z,3.88
2024-05-09T00:48:02.994Z,3.85
2024-05-09T00:50:35.840Z,3.42
2024-05-09T00:53:05.914Z,3.95
2024-05-09T00:55:33.707Z,3.40
2024-05-09T00:58:00.890Z,3.67
2024-05-09T01:00:35.657Z,3.90
2024-05-09T01:03:06.271Z,3.58
2024-05-09T01:05:33.155Z,3.83
2024-05-09T01:07:59.837Z,3.80
2024-05-09T01:10:33.593Z,3.67
2024-05-09T01:13:02.657Z,3.92
2024-05-09T01:15:29.171Z,3.20
2024-05-09T01:17:56.867Z,4.05
2024-05-09T01:20:32.116Z,3.58
2024-05-09T01:23:07.343Z,3.75
2024-05-09T01:25:34.282Z,3.42
2024-05-09T01:28:01.318Z,3.88
2024-05-09T01:30:34.107Z,3.90
2024-05-09T01:33:03.611Z,3.53
2024-05-09T01:35:30.280Z,3.70
2024-05-09T01:37:56.830Z,3.97
2024-05-09T01:40:33.300Z,4.07
2024-05-09T01:43:04.562Z,4.07
2024-05-09T01:45:31.104Z,3.70
2024-05-09T01:47:57.744Z,3.80
2024-05-09T01:50:35.857Z,4.13
2024-05-09T01:53:05.966Z,3.88
2024-05-09T01:55:32.938Z,4.15
2024-05-09T01:57:59.386Z,4.20
2024-05-09T02:00:34.209Z,3.88
2024-05-09T02:03:09.320Z,3.90
2024-05-09T02:05:36.107Z,3.63
2024-05-09T02:08:02.789Z,4.10
2024-05-09T02:10:32.668Z,3.90
2024-05-09T02:12:59.832Z,3.72
2024-05-09T02:15:27.374Z,3.45
2024-05-09T02:17:54.087Z,4.20
2024-05-09T02:20:30.168Z,4.10
2024-05-09T02:23:02.345Z,3.92
2024-05-09T02:25:28.876Z,3.80
2024-05-09T02:27:55.420Z,3.35
2024-05-09T02:30:30.024Z,3.47
2024-05-09T02:33:05.022Z,3.97
2024-05-09T02:35:31.804Z,3.80
2024-05-09T02:37:58.328Z,3.97
2024-05-09T02:40:35.835Z,3.95
2024-05-09T02:43:05.272Z,4.00
2024-05-09T02:45:31.958Z,3.85
2024-05-09T02:47:58.803Z,4.13
2024-05-09T02:50:33.715Z,3.83
2024-05-09T02:53:05.439Z,3.80
2024-05-09T02:55:32.160Z,4.05
2024-05-09T02:57:58.688Z,4.20
2024-05-09T03:00:34.297Z,3.80
2024-05-09T03:03:10.593Z,3.97
2024-05-09T03:05:39.397Z,3.67
2024-05-09T03:08:06.432Z,4.05
2024-05-09T03:10:36.447Z,3.80
2024-05-09T03:13:09.180Z,3.95
2024-05-09T03:15:36.196Z,3.72
2024-05-09T03:18:03.345Z,3.70
2024-05-09T03:20:34.256Z,4.32
2024-05-09T03:23:03.206Z,4.72
2024-05-09T03:25:30.026Z,4.45
2024-05-09T03:27:56.642Z,4.43
2024-05-09T03:30:30.928Z,4.22
2024-05-09T03:33:10.222Z,4.15
2024-05-09T03:35:37.252Z,3.55
2024-05-09T03:38:03.981Z,3.60
2024-05-09T03:40:31.434Z,3.90
2024-05-09T03:42:58.004Z,3.83
2024-05-09T03:45:24.441Z,3.72
2024-05-09T03:47:51.039Z,3.92
2024-05-09T03:50:25.279Z,3.70
2024-05-09T03:52:56.439Z,4.38
2024-05-09T03:55:22.963Z,4.00
2024-05-09T03:57:49.428Z,4.20
2024-05-09T04:00:22.128Z,4.00
2024-05-09T04:02:56.057Z,3.80
2024-05-09T04:05:22.581Z,4.00
2024-05-09T04:07:49.136Z,4.28
2024-05-09T04:10:24.017Z,4.13
2024-05-09T04:12:56.985Z,4.25
2024-05-09T04:15:24.339Z,4.50
2024-05-09T04:17:50.998Z,4.03
2024-05-09T04:20:29.082Z,4.30
2024-05-09T04:23:10.489Z,4.10
2024-05-09T04:25:37.217Z,4.00
2024-05-09T04:28:04.213Z,3.50
2024-05-09T04:30:37.484Z,3.45
2024-05-09T04:33:09.201Z,4.10
2024-05-09T04:35:37.974Z,4.20
2024-05-09T04:38:05.438Z,4.00
2024-05-09T04:40:35.479Z,4.00
2024-05-09T04:43:04.965Z,3.92
2024-05-09T04:45:31.623Z,4.05
2024-05-09T04:47:58.499Z,4.40
2024-05-09T04:50:35.359Z,4.40
2024-05-09T04:53:05.284Z,4.00
2024-05-09T04:55:33.230Z,4.05
2024-05-09T04:57:59.863Z,3.92
2024-05-09T05:00:34.505Z,3.58
2024-05-09T05:03:10.625Z,3.55
2024-05-09T05:05:39.564Z,3.47
2024-05-09T05:08:11.847Z,4.00
2024-05-09T05:10:38.288Z,3.97
2024-05-09T05:13:04.902Z,4.10
2024-05-09T05:15:31.344Z,4.00
2024-05-09T05:17:57.894Z,4.03
2024-05-09T05:20:31.240Z,4.50
2024-05-09T05:23:00.276Z,4.30
2024-05-09T05:25:26.804Z,3.88
2024-05-09T05:27:53.287Z,4.30
2024-05-09T05:30:25.086Z,4.57
2024-05-09T05:32:55.756Z,4.55
2024-05-09T05:35:22.499Z,4.70
2024-05-09T05:37:49.202Z,5.03
2024-05-09T05:40:25.273Z,5.07
2024-05-09T05:42:59.345Z,4.85
2024-05-09T05:45:25.807Z,5.38
2024-05-09T05:47:54.776Z,5.95
2024-05-09T05:50:27.888Z,5.35
2024-05-09T05:53:01.797Z,6.28
2024-05-09T05:55:28.455Z,7.38
2024-05-09T05:57:54.913Z,7.28
2024-05-09T06:00:29.119Z,8.18
2024-05-09T06:03:01.907Z,9.60
2024-05-09T06:05:28.587Z,10.25
2024-05-09T06:07:55.127Z,10.05
2024-05-09T06:10:25.950Z,11.48
2024-05-09T06:12:57.152Z,10.65
2024-05-09T06:15:23.614Z,9.93
2024-05-09T06:17:50.217Z,10.75
2024-05-09T06:20:23.593Z,12.32
2024-05-09T06:22:54.361Z,10.38
2024-05-09T06:25:20.848Z,11.85
2024-05-09T06:27:47.354Z,11.52
2024-05-09T06:30:24.929Z,10.85
2024-05-09T06:32:56.251Z,11.40
2024-05-09T06:35:22.925Z,11.70
2024-05-09T06:37:49.467Z,10.50
2024-05-09T06:40:21.381Z,11.10
2024-05-09T06:42:52.010Z,10.10
2024-05-09T06:45:18.507Z,10.48
2024-05-09T06:47:45.116Z,9.23
2024-05-09T06:50:20.194Z,9.73
2024-05-09T06:52:50.524Z,9.10
2024-05-09T06:55:18.015Z,9.98
2024-05-09T06:57:44.515Z,9.07
2024-05-09T07:00:15.643Z,9.82
2024-05-09T07:02:45.799Z,9.77
2024-05-09T07:05:12.648Z,9.45
2024-05-09T07:07:39.148Z,9.52
2024-05-09T07:10:07.797Z,10.13
2024-05-09T07:12:36.420Z,9.25
2024-05-09T07:15:03.121Z,9.05
2024-05-09T07:17:29.917Z,10.30
2024-05-09T07:19:56.552Z,9.85
2024-05-09T07:22:23.184Z,9.23
2024-05-09T07:24:49.646Z,10.15
2024-05-09T07:27:16.177Z,9.23
2024-05-09T07:29:42.838Z,9.60
2024-05-09T07:32:09.432Z,9.73
2024-05-09T07:34:36.123Z,9.85
2024-05-09T07:37:02.795Z,8.45
2024-05-09T07:39:29.324Z,10.35
2024-05-09T07:41:55.928Z,9.68
2024-05-09T07:44:22.525Z,9.10
2024-05-09T07:47:52.197Z,9.00
2024-05-09T07:54:35.290Z,8.32
2024-05-09T07:57:02.014Z,9.02
2024-05-09T07:59:28.602Z,8.60
2024-05-09T08:01:55.260Z,9.43
2024-05-09T08:04:23.073Z,8.98
2024-05-09T08:06:51.678Z,8.95
2024-05-09T08:09:21.144Z,9.00
2024-05-09T08:11:50.384Z,8.63
2024-05-09T08:14:17.574Z,9.85
2024-05-09T08:16:44.094Z,9.02
2024-05-09T08:19:10.615Z,8.95
2024-05-09T08:21:37.238Z,9.45
2024-05-09T08:24:03.783Z,9.50
2024-05-09T08:26:30.238Z,8.57
2024-05-09T08:28:56.774Z,8.35
2024-05-09T08:31:23.351Z,8.77
2024-05-09T08:33:50.315Z,9.50
2024-05-09T08:36:17.146Z,8.90
2024-05-09T08:38:43.792Z,8.75
2024-05-09T08:41:14.269Z,8.32
2024-05-09T08:43:44.493Z,8.13
2024-05-09T08:46:11.905Z,8.25
2024-05-09T08:48:39.995Z,7.80
2024-05-09T08:51:06.832Z,8.30
2024-05-09T08:53:33.475Z,9.75
2024-05-09T08:56:02.049Z,8.57
2024-05-09T08:58:30.655Z,8.38
2024-05-09T09:00:57.575Z,8.32
2024-05-09T09:03:28.011Z,8.02
2024-05-09T09:06:10.300Z,7.78
2024-05-09T09:08:38.834Z,7.22
2024-05-09T09:11:05.531Z,7.47
2024-05-09T09:13:32.099Z,7.80
2024-05-09T09:15:59.363Z,7.20
2024-05-09T09:18:27.306Z,6.68
2024-05-09T09:20:54.018Z,6.38
2024-05-09T09:23:20.516Z,5.80
2024-05-09T09:25:47.047Z,5.93
2024-05-09T09:28:13.903Z,5.60
2024-05-09T09:30:41.404Z,6.57
2024-05-09T09:33:09.137Z,7.13
2024-05-09T09:35:36.295Z,7.18
2024-05-09T09:38:03.603Z,7.95
2024-05-09T09:40:38.622Z,8.35
2024-05-09T09:43:14.307Z,8.82
2024-05-09T09:45:43.122Z,8.07
2024-05-09T09:48:10.615Z,8.35
2024-05-09T09:50:38.285Z,8.02
2024-05-09T09:53:07.582Z,8.93
2024-05-09T09:55:34.818Z,8.88
2024-05-09T09:58:01.430Z,10.00
2024-05-09T10:00:33.070Z,9.38
2024-05-09T10:03:01.583Z,10.38
2024-05-09T10:05:29.020Z,9.93
2024-05-09T10:07:57.335Z,9.90
2024-05-09T10:10:31.454Z,10.30
2024-05-09T10:13:08.854Z,10.68
2024-05-09T10:15:46.316Z,9.02
2024-05-09T10:18:13.251Z,9.65
2024-05-09T10:20:43.933Z,9.90
2024-05-09T10:23:29.886Z,9.77
2024-05-09T10:26:03.797Z,9.68
2024-05-09T10:28:32.174Z,11.20
2024-05-09T10:31:09.715Z,10.70
2024-05-09T10:33:46.636Z,9.27
2024-05-09T10:36:24.774Z,8.82
2024-05-09T10:38:53.814Z,9.05
2024-05-09T10:41:21.954Z,9.60
2024-05-09T10:43:49.193Z,10.02
2024-05-09T10:46:16.389Z,10.10
2024-05-09T10:48:43.753Z,10.05
2024-05-09T10:51:11.208Z,9.60
2024-05-09T10:53:45.035Z,9.30
2024-05-09T10:56:13.506Z,9.65
2024-05-09T10:58:40.073Z,9.65
2024-05-09T11:01:07.567Z,9.82
2024-05-09T11:03:35.627Z,10.00
2024-05-09T11:06:03.114Z,9.52
2024-05-09T11:08:31.218Z,9.57
2024-05-09T11:10:58.043Z,10.00
2024-05-09T11:13:28.256Z,8.30
2024-05-09T11:15:55.345Z,9.32
2024-05-09T11:18:25.290Z,9.35
2024-05-09T11:20:54.164Z,9.63
2024-05-09T11:23:22.375Z,10.10
2024-05-09T11:25:53.408Z,9.45
2024-05-09T11:28:20.601Z,9.82
2024-05-09T11:30:47.761Z,9.70
2024-05-09T11:33:19.699Z,9.55
2024-05-09T11:35:47.085Z,9.20
2024-05-09T11:38:13.864Z,9.05
2024-05-09T11:40:40.586Z,9.27
2024-05-09T11:43:07.220Z,9.45
2024-05-09T11:45:33.808Z,9.07
2024-05-09T11:48:00.716Z,9.13
2024-05-09T11:50:32.643Z,9.15
2024-05-09T11:53:01.818Z,8.95
2024-05-09T11:55:28.642Z,9.45
2024-05-09T11:57:55.507Z,8.60
2024-05-09T12:00:29.600Z,9.57
2024-05-09T12:03:03.279Z,10.23
2024-05-09T12:05:29.959Z,9.02
2024-05-09T12:07:56.668Z,8.63
2024-05-09T12:10:31.991Z,8.45
2024-05-09T12:13:00.830Z,9.73
2024-05-09T12:15:27.376Z,9.20
2024-05-09T12:17:54.961Z,9.23
2024-05-09T12:20:28.862Z,9.02
2024-05-09T12:23:02.372Z,9.60
2024-05-09T12:25:28.883Z,8.70
2024-05-09T12:27:55.596Z,9.55
2024-05-09T12:30:32.672Z,9.40
2024-05-09T12:33:04.417Z,9.43
2024-05-09T12:35:31.166Z,10.13
2024-05-09T12:37:58.272Z,9.90
2024-05-09T12:40:34.206Z,9.80
2024-05-09T12:43:05.038Z,8.68
2024-05-09T12:45:33.171Z,9.52
2024-05-09T12:47:59.947Z,9.38
2024-05-09T12:50:32.396Z,9.30
2024-05-09T12:53:00.828Z,9.65
2024-05-09T12:55:28.456Z,9.57
2024-05-09T12:57:57.276Z,8.95
2024-05-09T13:00:28.357Z,8.77
2024-05-09T13:03:00.550Z,8.95
2024-05-09T13:05:27.525Z,9.32
2024-05-09T13:07:54.180Z,9.27
2024-05-09T13:10:28.993Z,8.77
2024-05-09T13:12:59.570Z,9.20
2024-05-09T13:15:26.396Z,9.55
2024-05-09T13:17:53.110Z,9.60
2024-05-09T13:20:28.918Z,9.85
2024-05-09T13:23:02.047Z,9.13
2024-05-09T13:25:28.610Z,9.80
2024-05-09T13:27:55.865Z,10.02
2024-05-09T13:30:29.718Z,10.23
2024-05-09T13:33:06.313Z,10.25
2024-05-09T13:35:33.773Z,9.80
2024-05-09T13:38:01.890Z,9.50
2024-05-09T13:40:33.622Z,10.02
2024-05-09T13:43:02.653Z,9.40
2024-05-09T13:45:29.339Z,9.70
2024-05-09T13:47:56.158Z,10.73
2024-05-09T13:50:31.138Z,10.68
2024-05-09T13:53:01.811Z,11.00
2024-05-09T13:55:28.409Z,10.30
2024-05-09T13:57:54.999Z,10.93
2024-05-09T14:00:32.312Z,9.45
2024-05-09T14:03:08.486Z,10.02
2024-05-09T14:05:35.279Z,9.85
2024-05-09T14:08:01.938Z,9.40
2024-05-09T14:10:31.261Z,10.63
2024-05-09T14:12:58.799Z,11.05
2024-05-09T14:15:25.487Z,11.68
2024-05-09T14:17:52.059Z,10.93
2024-05-09T14:20:28.262Z,10.95
2024-05-09T14:22:58.330Z,11.20
2024-05-09T14:25:24.900Z,10.13
2024-05-09T14:27:51.879Z,10.85
2024-05-09T14:30:26.080Z,10.63
2024-05-09T14:33:00.604Z,10.18
2024-05-09T14:35:27.122Z,10.90
2024-05-09T14:37:53.955Z,11.15
2024-05-09T14:40:31.111Z,11.00
2024-05-09T14:43:06.386Z,11.75
2024-05-09T14:45:33.107Z,10.90
2024-05-09T14:47:59.832Z,11.90
2024-05-09T14:50:34.653Z,10.50
2024-05-09T14:53:04.966Z,12.35
2024-05-09T14:55:31.707Z,13.35
2024-05-09T14:57:58.307Z,13.48
2024-05-09T15:00:29.057Z,14.10
2024-05-09T15:03:00.230Z,13.88
2024-05-09T15:05:26.917Z,16.15
2024-05-09T15:07:53.466Z,13.75
2024-05-09T15:10:27.027Z,13.27
2024-05-09T15:13:00.510Z,13.15
2024-05-09T15:15:27.028Z,14.82
2024-05-09T15:17:55.316Z,13.75
2024-05-09T15:20:30.937Z,13.77
2024-05-09T15:23:02.314Z,12.32
2024-05-09T15:25:29.019Z,14.95
2024-05-09T15:27:55.681Z,14.02
2024-05-09T15:30:30.427Z,13.40
2024-05-09T15:32:59.538Z,13.63
2024-05-09T15:35:27.159Z,13.15
2024-05-09T15:37:53.841Z,14.18
2024-05-09T15:40:30.525Z,14.50
2024-05-09T15:43:04.553Z,14.50
2024-05-09T15:45:31.330Z,14.95
2024-05-09T15:47:58.449Z,14.77
2024-05-09T15:50:35.182Z,15.05
2024-05-09T15:53:06.109Z,14.02
2024-05-09T15:55:34.624Z,14.80
2024-05-09T15:58:02.518Z,13.57
2024-05-09T16:00:37.018Z,14.93
2024-05-09T16:03:07.447Z,18.10
2024-05-09T16:05:34.219Z,17.92
2024-05-09T16:08:00.914Z,15.57
2024-05-09T16:10:32.553Z,16.65
2024-05-09T16:13:01.569Z,16.35
2024-05-09T16:15:28.444Z,16.27
2024-05-09T16:17:55.336Z,15.55
2024-05-09T16:20:33.984Z,15.95
2024-05-09T16:23:05.986Z,17.35
2024-05-09T16:25:32.659Z,16.08
2024-05-09T16:27:59.874Z,16.27
2024-05-09T16:30:33.845Z,15.85
2024-05-09T16:33:04.248Z,16.95
2024-05-09T16:35:31.843Z,16.38
2024-05-09T16:37:58.503Z,16.52
2024-05-09T16:40:34.277Z,15.70
2024-05-09T16:43:06.517Z,15.10
2024-05-09T16:45:33.576Z,16.15
2024-05-09T16:48:01.231Z,16.08
2024-05-09T16:50:32.626Z,16.10
2024-05-09T16:53:01.965Z,17.63
2024-05-09T16:55:28.587Z,18.33
2024-05-09T16:57:55.541Z,17.17
2024-05-09T17:00:31.614Z,15.93
2024-05-09T17:03:07.296Z,17.73
2024-05-09T17:05:34.652Z,16.90
2024-05-09T17:08:01.584Z,16.92
2024-05-09T17:10:32.919Z,17.38
2024-05-09T17:13:02.468Z,18.08
2024-05-09T17:15:29.614Z,18.02
2024-05-09T17:17:56.787Z,17.58
2024-05-09T17:20:31.283Z,16.90
2024-05-09T17:23:02.369Z,16.98
2024-05-09T17:25:28.964Z,17.02
2024-05-09T17:27:55.963Z,16.55
2024-05-09T17:30:29.133Z,19.33
2024-05-09T17:33:02.185Z,18.95
2024-05-09T17:35:28.899Z,17.73
2024-05-09T17:37:55.453Z,17.73
2024-05-09T17:40:30.772Z,17.25
2024-05-09T17:43:01.427Z,14.98
2024-05-09T17:45:28.917Z,15.23
2024-05-09T17:47:55.756Z,15.25
2024-05-09T17:50:30.248Z,15.05
2024-05-09T17:53:01.558Z,14.43
2024-05-09T17:55:28.407Z,14.70
2024-05-09T17:57:55.221Z,13.88
2024-05-09T18:00:32.453Z,12.43
2024-05-09T18:03:04.744Z,12.70
2024-05-09T18:05:31.953Z,13.10
2024-05-09T18:07:58.580Z,13.90
2024-05-09T18:10:32.825Z,13.98
2024-05-09T18:13:04.361Z,13.15
2024-05-09T18:15:31.133Z,13.25
2024-05-09T18:17:58.216Z,12.70
2024-05-09T18:20:33.164Z,13.75
2024-05-09T18:23:07.858Z,13.63
2024-05-09T18:25:34.662Z,14.13
2024-05-09T18:28:04.480Z,14.57
2024-05-09T18:30:34.587Z,14.68
2024-05-09T18:33:03.441Z,15.50
2024-05-09T18:35:32.381Z,15.80
2024-05-09T18:37:59.135Z,16.30
2024-05-09T18:40:32.758Z,16.17
2024-05-09T18:43:05.341Z,15.80
2024-05-09T18:45:33.317Z,14.93
2024-05-09T18:48:00.439Z,15.65
2024-05-09T18:50:34.637Z,15.63
2024-05-09T18:53:09.196Z,16.13
2024-05-09T18:55:36.081Z,15.23
2024-05-09T18:58:04.460Z,16.05
2024-05-09T19:00:35.777Z,16.58
2024-05-09T19:03:06.775Z,16.35
2024-05-09T19:05:36.088Z,15.32
2024-05-09T19:08:02.954Z,15.55
2024-05-09T19:10:34.227Z,15.23
2024-05-09T19:13:05.413Z,15.80
2024-05-09T19:15:35.799Z,14.68
2024-05-09T19:18:02.961Z,14.23
2024-05-09T19:20:34.246Z,14.93
2024-05-09T19:23:02.424Z,15.65
2024-05-09T19:25:28.870Z,14.65
2024-05-09T19:27:55.382Z,14.45
2024-05-09T19:30:30.071Z,15.02
2024-05-09T19:33:04.830Z,14.90
2024-05-09T19:35:31.613Z,14.32
2024-05-09T19:37:58.347Z,14.05
2024-05-09T19:40:30.730Z,13.52
2024-05-09T19:42:59.639Z,13.95
2024-05-09T19:45:26.150Z,13.95
2024-05-09T19:47:52.872Z,15.07
2024-05-09T19:50:26.811Z,15.68
2024-05-09T19:53:01.981Z,14.65
2024-05-09T19:55:28.698Z,14.15
2024-05-09T19:57:55.249Z,14.48
2024-05-09T20:00:29.117Z,14.68
2024-05-09T20:03:02.102Z,13.98
2024-05-09T20:05:28.904Z,14.02
2024-05-09T20:07:55.491Z,14.73
2024-05-09T20:10:26.211Z,14.52
2024-05-09T20:12:56.302Z,14.77
2024-05-09T20:15:22.801Z,14.18
2024-05-09T20:17:49.537Z,12.68
2024-05-09T20:20:27.384Z,13.52
2024-05-09T20:22:59.928Z,13.93
2024-05-09T20:25:26.391Z,14.88
2024-05-09T20:27:52.991Z,14.45
2024-05-09T20:30:28.708Z,14.35
2024-05-09T20:32:59.403Z,13.57
2024-05-09T20:35:25.976Z,14.02
2024-05-09T20:37:52.492Z,13.80
2024-05-09T20:40:25.759Z,13.93
2024-05-09T20:42:59.141Z,13.25
2024-05-09T20:45:25.753Z,13.93
2024-05-09T20:47:52.540Z,13.68
2024-05-09T20:50:28.034Z,13.23
2024-05-09T20:53:02.496Z,13.93
2024-05-09T20:55:29.038Z,13.73
2024-05-09T20:57:55.517Z,13.40
2024-05-09T21:00:29.833Z,13.65
2024-05-09T21:03:04.085Z,14.52
2024-05-09T21:05:30.712Z,13.20
2024-05-09T21:07:57.717Z,13.10
2024-05-09T21:10:26.799Z,13.35
2024-05-09T21:12:53.862Z,13.98
2024-05-09T21:15:20.322Z,14.63
2024-05-09T21:17:47.478Z,14.90
2024-05-09T21:20:17.538Z,14.50
2024-05-09T21:22:49.895Z,13.65
2024-05-09T21:25:16.523Z,14.25
2024-05-09T21:27:43.070Z,14.02
2024-05-09T21:30:15.961Z,14.57
2024-05-09T21:32:49.114Z,14.70
2024-05-09T21:35:15.715Z,14.55
2024-05-09T21:37:42.218Z,14.45
2024-05-09T21:40:13.856Z,14.85
2024-05-09T21:42:47.408Z,14.95
2024-05-09T21:45:14.044Z,14.90
2024-05-09T21:47:40.627Z,14.38
2024-05-09T21:50:07.936Z,13.70
2024-05-09T21:52:34.564Z,13.27
2024-05-09T21:55:01.144Z,14.23
2024-05-09T21:57:27.671Z,14.63
2024-05-09T21:59:54.108Z,13.80
2024-05-09T22:02:20.678Z,14.10
2024-05-09T22:04:47.294Z,13.70
2024-05-09T22:07:14.078Z,13.00
2024-05-09T22:09:40.868Z,14.30
2024-05-09T22:12:07.403Z,13.40
2024-05-09T22:14:33.942Z,13.55
2024-05-09T22:17:00.490Z,14.45
2024-05-09T22:19:27.124Z,13.65
2024-05-09T22:21:53.679Z,13.55
2024-05-09T22:24:20.610Z,13.63
2024-05-09T22:26:47.120Z,13.55
2024-05-09T22:29:13.595Z,13.05
2024-05-09T22:31:40.031Z,13.38
2024-05-09T22:34:06.817Z,13.10
2024-05-09T22:36:33.536Z,13.60
2024-05-09T22:39:00.136Z,14.73
2024-05-09T22:41:26.674Z,13.57
2024-05-09T22:43:53.127Z,13.10
2024-05-09T22:46:19.655Z,13.90
2024-05-09T22:48:47.332Z,13.55
2024-05-09T22:51:13.913Z,14.43
2024-05-09T22:53:40.891Z,13.95
2024-05-09T22:56:07.806Z,13.70
2024-05-09T22:58:34.370Z,13.15
2024-05-09T23:01:01.096Z,13.63
2024-05-09T23:03:27.874Z,13.27
2024-05-09T23:05:54.451Z,13.10
2024-05-09T23:08:21.001Z,12.93
2024-05-09T23:10:47.646Z,13.57
2024-05-09T23:13:14.610Z,12.52
2024-05-09T23:15:41.293Z,12.57
2024-05-09T23:18:08.263Z,13.30
2024-05-09T23:20:38.714Z,12.38
2024-05-09T23:23:11.319Z,13.00
2024-05-09T23:25:40.041Z,12.40
2024-05-09T23:28:07.249Z,12.65
2024-05-09T23:30:38.354Z,12.85
2024-05-09T23:33:08.426Z,12.77
2024-05-09T23:35:35.387Z,13.32
2024-05-09T23:38:02.099Z,12.55
2024-05-09T23:40:37.304Z,12.10
2024-05-09T23:43:07.529Z,12.50
2024-05-09T23:45:34.307Z,12.70
2024-05-09T23:48:01.404Z,12.90
2024-05-09T23:50:34.435Z,12.20
2024-05-09T23:53:04.879Z,12.60
2024-05-09T23:55:31.959Z,12.20
2024-05-09T23:57:58.783Z,12.18
